Aérodrome :
LOGIN :

S'inscrire | Disclaimer

   EN    FR    IT 

 










Légende :    VFR   VFR Marginal   IFR   IFR Intensif   IFR Très Intensif
Visi : 
Plafond : 
>= 8 km
>= 3000ft
5 à 8 km
1000 à 3000 ft
1500m à 5 km
500 à 1000 ft
800 à 1500m
200 à 500 ft
< 800m
< 200 ft
Symboles :   Orages  Brouillard  Fortes neiges  Fortes précipitations  Vent > 20 kt
SIGMETs :   Divers  Orages  Givrage  Turbulence  Onde Orograph.  Cendres Volcan.







- Altitude de l'aérodrome : 3 ft
- Code IATA : DHR


EHKD - Den Helder De Kooy

DERNIER METAR :
  • 180155Z AUTO 17003KT 9999 OVC120 10/09 Q1016 BLU

METARs EXPIRÉS :
  • 180125Z AUTO 17004KT 9999 OVC055 10/09 Q1016 BLU
  • 180055Z AUTO VRB01KT 9999 BKN056 BKN120 09/08 Q1016 BLU
  • 180025Z AUTO VRB01KT 9999 BKN056 BKN120 10/08 Q1016 BLU
  • 172355Z AUTO 29002KT 9999 NCD 10/09 Q1016 BLU
  • 172325Z AUTO VRB02KT 9999 NCD 10/08 Q1016 BLU

TAF TAF EHKD
Valide du 18 à 01h jusqu'au 18 à 13h UTC


180101Z 1801/1813 VRB02KT 9000 BR BKN055
BECMG 1806/1809 10010KT FEW020 BKN040
Pas de NOTAMs connus pour ce terrain.



MET'MAP, la Météo Aéronautique d'un coup d'oeil ! - Copyright ORBIFLY Décembre 2007 - Disclaimer

ORBIFLY MET'MAP TEAM :

Programmation & Développement : Alexandra Zaïnal
Conception & Développement : Baudouin d'Aumeries
Co-Programmation & Développement : Marc-Olivier Méhu
Soutien technique & logistique : Manuel Goepfert

Contact : metmap@orbifly.com




SOURCES & CREDITS :

   NOAA